Time;durP1;ratioP1;P1;durP2;ratioP2;P2;SDS_P1;SDS_P2;PMS_P1;PMS_P2;Temp;Humidity;BMP_temperature;BMP_pressure;BME280_temperature;BME280_humidity;BME280_pressure;Samples;Min_cycle;Max_cycle;Signal;HPM_P1;HPM_P2
2023/12/22 00:01:06;;;;;;;12.47;6.50;;;;;;;;;;5054231;28;20513;-67
2023/12/22 00:03:32;;;;;;;10.00;7.40;;;;;;;;;;5047572;28;20512;-66
2023/12/22 00:05:59;;;;;;;10.43;7.27;;;;;;;;;;5066169;28;20523;-66
2023/12/22 00:08:27;;;;;;;10.67;5.70;;;;;;;;;;5073187;28;20929;-65
2023/12/22 00:10:53;;;;;;;13.73;6.83;;;;;;;;;;5067617;28;20531;-65
2023/12/22 00:13:19;;;;;;;13.57;6.30;;;;;;;;;;5074815;28;20464;-66
2023/12/22 00:15:46;;;;;;;13.40;7.73;;;;;;;;;;5073959;28;20727;-64
2023/12/22 00:18:12;;;;;;;22.37;6.37;;;;;;;;;;5070689;28;20491;-65
2023/12/22 00:20:38;;;;;;;11.30;6.57;;;;;;;;;;5073534;28;20953;-64
2023/12/22 00:23:05;;;;;;;16.17;6.80;;;;;;;;;;5073759;28;20523;-66
2023/12/22 00:25:32;;;;;;;15.83;6.13;;;;;;;;;;5076603;28;20539;-65
2023/12/22 00:27:59;;;;;;;12.83;6.37;;;;;;;;;;5075045;28;20508;-66
2023/12/22 00:30:25;;;;;;;15.07;6.97;;;;;;;;;;5072252;28;20479;-66
2023/12/22 00:32:52;;;;;;;16.63;6.83;;;;;;;;;;5076106;28;20486;-65
2023/12/22 00:35:18;;;;;;;17.27;6.70;;;;;;;;;;5073597;28;20472;-65
2023/12/22 00:37:44;;;;;;;7.43;5.20;;;;;;;;;;5073289;28;20501;-65
2023/12/22 00:40:11;;;;;;;7.90;4.90;;;;;;;;;;5075793;28;20488;-65
2023/12/22 00:42:39;;;;;;;7.37;4.50;;;;;;;;;;5074065;28;20469;-67
2023/12/22 00:45:06;;;;;;;4.37;3.37;;;;;;;;;;5073050;28;20817;-66
2023/12/22 00:47:34;;;;;;;5.73;3.80;;;;;;;;;;5065977;28;20475;-65
2023/12/22 00:50:01;;;;;;;11.93;3.80;;;;;;;;;;5067196;28;20495;-66
2023/12/22 00:52:27;;;;;;;5.53;3.40;;;;;;;;;;5066008;28;20488;-67
2023/12/22 00:54:54;;;;;;;6.53;3.17;;;;;;;;;;5071825;28;20563;-67
2023/12/22 00:57:20;;;;;;;7.77;3.40;;;;;;;;;;5075236;28;20451;-65
2023/12/22 00:59:48;;;;;;;10.23;3.70;;;;;;;;;;5075674;28;20464;-67
2023/12/22 01:02:14;;;;;;;9.83;3.77;;;;;;;;;;5069750;28;20470;-67
2023/12/22 01:04:41;;;;;;;8.63;5.00;;;;;;;;;;5073692;28;20515;-67
2023/12/22 01:07:08;;;;;;;14.20;4.30;;;;;;;;;;5067229;28;20495;-67
2023/12/22 01:09:34;;;;;;;11.43;4.83;;;;;;;;;;5074202;28;20476;-66
2023/12/22 01:12:02;;;;;;;17.60;4.93;;;;;;;;;;5075685;28;20528;-66
2023/12/22 01:14:29;;;;;;;13.10;5.13;;;;;;;;;;5072244;28;20490;-67
2023/12/22 01:16:58;;;;;;;19.43;5.47;;;;;;;;;;5065607;28;20457;-65
2023/12/22 01:19:23;;;;;;;19.83;5.17;;;;;;;;;;5075540;28;20474;-64
2023/12/22 01:21:50;;;;;;;19.77;6.40;;;;;;;;;;5072415;28;20451;-67
2023/12/22 01:24:16;;;;;;;17.03;5.90;;;;;;;;;;5071832;28;20671;-65
2023/12/22 01:26:43;;;;;;;12.23;6.90;;;;;;;;;;5072137;28;20607;-66
2023/12/22 01:29:09;;;;;;;12.80;5.90;;;;;;;;;;5076710;28;20507;-67
2023/12/22 01:31:36;;;;;;;9.73;4.60;;;;;;;;;;5078227;28;21077;-66
2023/12/22 01:34:03;;;;;;;7.07;4.10;;;;;;;;;;5077169;28;20575;-66
2023/12/22 01:36:30;;;;;;;6.60;3.20;;;;;;;;;;5078321;28;20519;-67
2023/12/22 01:38:56;;;;;;;7.13;3.30;;;;;;;;;;5073872;28;20482;-65
2023/12/22 01:41:22;;;;;;;3.17;2.30;;;;;;;;;;5072898;28;21392;-66
2023/12/22 01:43:49;;;;;;;7.83;3.07;;;;;;;;;;5075133;28;20519;-66
2023/12/22 01:46:15;;;;;;;5.50;2.77;;;;;;;;;;5074055;28;20574;-66
2023/12/22 01:48:42;;;;;;;7.40;2.53;;;;;;;;;;5068780;28;21178;-66
2023/12/22 01:51:09;;;;;;;9.70;2.60;;;;;;;;;;5079147;28;20563;-66
2023/12/22 01:53:36;;;;;;;5.10;2.40;;;;;;;;;;5078829;28;20446;-66
2023/12/22 01:56:02;;;;;;;12.07;2.60;;;;;;;;;;5076171;28;20456;-66
2023/12/22 01:58:30;;;;;;;10.03;2.73;;;;;;;;;;5079444;28;20526;-66
2023/12/22 02:00:57;;;;;;;13.93;3.00;;;;;;;;;;5067377;28;20527;-66
2023/12/22 02:03:24;;;;;;;13.83;3.67;;;;;;;;;;5078697;28;20486;-67
2023/12/22 02:05:50;;;;;;;16.47;4.00;;;;;;;;;;5078662;28;20560;-66
2023/12/22 02:08:18;;;;;;;15.13;3.67;;;;;;;;;;5077620;28;20530;-66
2023/12/22 02:10:45;;;;;;;10.47;5.67;;;;;;;;;;5071698;28;20465;-66
2023/12/22 02:13:12;;;;;;;15.53;5.70;;;;;;;;;;5069468;28;20460;-66
2023/12/22 02:15:38;;;;;;;12.57;4.20;;;;;;;;;;5070820;28;20891;-66
2023/12/22 02:18:08;;;;;;;20.40;4.70;;;;;;;;;;5075969;28;20475;-66
2023/12/22 02:20:34;;;;;;;15.37;4.20;;;;;;;;;;5074977;28;20515;-65
2023/12/22 02:23:02;;;;;;;10.00;5.40;;;;;;;;;;5078624;28;20524;-65
2023/12/22 02:25:28;;;;;;;11.43;5.30;;;;;;;;;;5076038;28;20821;-66
2023/12/22 02:27:58;;;;;;;9.17;5.37;;;;;;;;;;5076561;28;20559;-66
2023/12/22 02:30:26;;;;;;;16.80;4.93;;;;;;;;;;5075080;28;20472;-67
2023/12/22 02:32:56;;;;;;;10.53;5.30;;;;;;;;;;5075717;28;20491;-67
2023/12/22 02:35:26;;;;;;;14.07;4.53;;;;;;;;;;5077343;28;20507;-67
2023/12/22 02:37:53;;;;;;;11.53;4.60;;;;;;;;;;5076860;28;20531;-67
2023/12/22 02:40:21;;;;;;;14.90;5.00;;;;;;;;;;5072036;28;20457;-65
2023/12/22 02:42:48;;;;;;;9.53;4.87;;;;;;;;;;5073084;28;20515;-67
2023/12/22 02:45:16;;;;;;;9.73;5.20;;;;;;;;;;5077090;28;20535;-68
2023/12/22 02:47:42;;;;;;;15.03;4.33;;;;;;;;;;5077530;28;20593;-67
2023/12/22 02:50:10;;;;;;;11.83;3.90;;;;;;;;;;5070762;28;20457;-67
2023/12/22 02:52:36;;;;;;;14.13;4.87;;;;;;;;;;5068725;28;20459;-66
2023/12/22 02:55:02;;;;;;;11.67;4.00;;;;;;;;;;5077129;28;21489;-67
2023/12/22 02:57:30;;;;;;;8.53;4.00;;;;;;;;;;5073429;28;20524;-67
2023/12/22 02:59:57;;;;;;;16.10;5.33;;;;;;;;;;5076809;28;20527;-67
2023/12/22 03:02:23;;;;;;;26.37;6.50;;;;;;;;;;5077066;28;20564;-67
2023/12/22 03:04:49;;;;;;;12.17;4.57;;;;;;;;;;5071918;28;21062;-68
2023/12/22 03:07:16;;;;;;;13.83;4.63;;;;;;;;;;5050606;28;20480;-67
2023/12/22 03:09:42;;;;;;;9.37;5.40;;;;;;;;;;5055975;28;20510;-67
2023/12/22 03:12:09;;;;;;;8.47;4.30;;;;;;;;;;5052742;28;20461;-67
2023/12/22 03:14:37;;;;;;;9.40;5.00;;;;;;;;;;5055664;28;20525;-68
2023/12/22 03:17:05;;;;;;;16.10;5.37;;;;;;;;;;5053720;28;20455;-67
2023/12/22 03:19:31;;;;;;;19.67;5.57;;;;;;;;;;5055093;28;20479;-67
2023/12/22 03:21:57;;;;;;;13.47;5.47;;;;;;;;;;5057514;28;20460;-67
2023/12/22 03:24:24;;;;;;;12.83;5.90;;;;;;;;;;5052797;28;20513;-67
2023/12/22 03:26:51;;;;;;;19.47;6.40;;;;;;;;;;5049915;28;20520;-67
2023/12/22 03:29:18;;;;;;;22.10;7.60;;;;;;;;;;5052271;28;20583;-67
2023/12/22 03:31:45;;;;;;;7.90;4.80;;;;;;;;;;5046574;28;20458;-67
2023/12/22 03:34:11;;;;;;;10.70;5.40;;;;;;;;;;5050174;28;20465;-67
2023/12/22 03:36:37;;;;;;;11.53;6.60;;;;;;;;;;5053661;28;20451;-67
2023/12/22 03:39:04;;;;;;;8.83;6.30;;;;;;;;;;5051644;28;20549;-66
2023/12/22 03:41:31;;;;;;;14.37;6.60;;;;;;;;;;5056817;28;20508;-67
2023/12/22 03:43:57;;;;;;;18.87;6.70;;;;;;;;;;5047121;28;20544;-67
2023/12/22 03:46:24;;;;;;;16.60;7.23;;;;;;;;;;5048064;28;20456;-67
2023/12/22 03:48:52;;;;;;;18.20;6.03;;;;;;;;;;5054933;28;20512;-67
2023/12/22 03:51:18;;;;;;;12.30;6.87;;;;;;;;;;5052541;28;20528;-67
2023/12/22 03:53:44;;;;;;;18.40;6.80;;;;;;;;;;5057644;28;20520;-67
2023/12/22 03:56:11;;;;;;;9.10;5.77;;;;;;;;;;5053934;28;20517;-67
2023/12/22 03:58:38;;;;;;;10.47;5.60;;;;;;;;;;5055741;28;20445;-67
2023/12/22 04:01:07;;;;;;;20.13;6.57;;;;;;;;;;5051945;28;20480;-67
2023/12/22 04:03:33;;;;;;;13.07;5.67;;;;;;;;;;5055419;28;20457;-66
2023/12/22 04:06:03;;;;;;;8.37;4.87;;;;;;;;;;5046258;28;20575;-66
2023/12/22 04:08:30;;;;;;;14.53;5.93;;;;;;;;;;5051540;28;20507;-66
2023/12/22 04:10:56;;;;;;;17.43;5.87;;;;;;;;;;5048160;28;20524;-67
2023/12/22 04:13:22;;;;;;;15.73;5.17;;;;;;;;;;5055347;28;20492;-66
2023/12/22 04:15:49;;;;;;;12.73;5.30;;;;;;;;;;5048441;28;20455;-67
2023/12/22 04:18:15;;;;;;;8.63;4.73;;;;;;;;;;5056673;28;20453;-66
2023/12/22 04:20:41;;;;;;;16.30;5.63;;;;;;;;;;5057177;28;20513;-66
2023/12/22 04:23:09;;;;;;;8.40;4.70;;;;;;;;;;5055408;28;20575;-66
2023/12/22 04:25:35;;;;;;;6.17;3.80;;;;;;;;;;5051151;28;20488;-67
2023/12/22 04:28:02;;;;;;;11.80;4.53;;;;;;;;;;5055930;28;20587;-67
2023/12/22 04:30:28;;;;;;;6.93;3.53;;;;;;;;;;5049227;28;20545;-67
2023/12/22 04:32:56;;;;;;;8.30;3.90;;;;;;;;;;5056195;28;20516;-67
2023/12/22 04:35:22;;;;;;;12.30;4.37;;;;;;;;;;5049557;28;20454;-67
2023/12/22 04:37:48;;;;;;;7.53;3.57;;;;;;;;;;5054044;28;20457;-67
2023/12/22 04:40:16;;;;;;;11.67;4.30;;;;;;;;;;5053732;28;20532;-67
2023/12/22 04:42:43;;;;;;;9.00;4.47;;;;;;;;;;5054111;28;20485;-67
2023/12/22 04:45:09;;;;;;;4.93;4.03;;;;;;;;;;5050875;28;20491;-67
2023/12/22 04:47:35;;;;;;;8.63;3.50;;;;;;;;;;5046959;28;20469;-67
2023/12/22 04:50:02;;;;;;;12.77;3.90;;;;;;;;;;5049537;28;20563;-67
2023/12/22 04:52:28;;;;;;;10.67;4.20;;;;;;;;;;5048673;28;20985;-66
2023/12/22 04:54:56;;;;;;;9.37;4.60;;;;;;;;;;5048146;28;20528;-66
2023/12/22 04:57:23;;;;;;;12.23;4.60;;;;;;;;;;5053934;28;20564;-67
2023/12/22 04:59:50;;;;;;;13.43;4.40;;;;;;;;;;5050815;28;20467;-66
2023/12/22 05:02:16;;;;;;;6.37;3.80;;;;;;;;;;5056351;28;20543;-67
2023/12/22 05:04:42;;;;;;;10.20;4.33;;;;;;;;;;5060255;28;20512;-67
2023/12/22 05:07:10;;;;;;;10.80;4.57;;;;;;;;;;5055038;28;20464;-66
2023/12/22 05:09:37;;;;;;;6.87;3.97;;;;;;;;;;5059211;28;20495;-66
2023/12/22 05:12:03;;;;;;;8.37;3.77;;;;;;;;;;5056107;28;20520;-66
2023/12/22 05:14:31;;;;;;;4.40;4.00;;;;;;;;;;5054711;28;20528;-67
2023/12/22 05:16:57;;;;;;;8.13;3.80;;;;;;;;;;5058841;28;20520;-67
2023/12/22 05:19:24;;;;;;;6.40;3.90;;;;;;;;;;5050273;28;20481;-67
2023/12/22 05:21:52;;;;;;;4.23;3.67;;;;;;;;;;5057561;28;20528;-67
2023/12/22 05:24:18;;;;;;;4.50;3.70;;;;;;;;;;5053330;28;20445;-67
2023/12/22 05:26:45;;;;;;;3.93;3.53;;;;;;;;;;5055820;28;20548;-66
2023/12/22 05:29:12;;;;;;;4.40;4.00;;;;;;;;;;5056728;28;21090;-66
2023/12/22 05:31:40;;;;;;;3.87;3.57;;;;;;;;;;5058860;28;20475;-66
2023/12/22 05:34:08;;;;;;;3.47;3.10;;;;;;;;;;5055472;28;20957;-66
2023/12/22 05:36:34;;;;;;;5.13;2.80;;;;;;;;;;5055296;28;20484;-67
2023/12/22 05:39:00;;;;;;;4.53;3.00;;;;;;;;;;5059710;28;20484;-66
2023/12/22 05:41:27;;;;;;;6.50;2.60;;;;;;;;;;5049724;28;20551;-66
2023/12/22 05:43:53;;;;;;;6.40;3.23;;;;;;;;;;5056828;28;20464;-66
2023/12/22 05:46:19;;;;;;;3.30;2.20;;;;;;;;;;5055297;28;20468;-66
2023/12/22 05:48:47;;;;;;;7.40;3.30;;;;;;;;;;5051725;28;20569;-66
2023/12/22 05:51:14;;;;;;;2.97;2.70;;;;;;;;;;5054068;28;20525;-66
2023/12/22 05:53:41;;;;;;;8.90;2.93;;;;;;;;;;5055660;28;20449;-67
2023/12/22 05:56:17;;;;;;;11.33;3.73;;;;;;;;;;5055202;28;20457;-67
2023/12/22 05:58:43;;;;;;;7.00;3.00;;;;;;;;;;5057140;28;20551;-67
2023/12/22 06:01:14;;;;;;;5.40;3.13;;;;;;;;;;5050944;28;20457;-66
2023/12/22 06:03:41;;;;;;;9.43;3.67;;;;;;;;;;5050822;28;20492;-67
2023/12/22 06:06:08;;;;;;;6.77;3.23;;;;;;;;;;5067157;28;20495;-67
2023/12/22 06:08:35;;;;;;;3.30;3.10;;;;;;;;;;5070937;28;20482;-66
2023/12/22 06:11:01;;;;;;;11.33;3.27;;;;;;;;;;5071112;28;20543;-67
2023/12/22 06:13:28;;;;;;;8.60;3.50;;;;;;;;;;5074595;28;20486;-67
2023/12/22 06:15:55;;;;;;;8.30;3.67;;;;;;;;;;5077615;28;20520;-67
2023/12/22 06:18:21;;;;;;;7.70;3.47;;;;;;;;;;5070734;28;20550;-66
2023/12/22 06:20:48;;;;;;;8.33;3.57;;;;;;;;;;5072515;28;20513;-66
2023/12/22 06:23:15;;;;;;;6.00;3.00;;;;;;;;;;5073729;28;20487;-66
2023/12/22 06:25:42;;;;;;;9.50;3.70;;;;;;;;;;5077941;28;20488;-67
2023/12/22 06:28:08;;;;;;;7.30;4.30;;;;;;;;;;5073009;28;20456;-66
2023/12/22 06:30:35;;;;;;;4.00;3.30;;;;;;;;;;5077029;28;20522;-66
2023/12/22 06:33:01;;;;;;;7.83;3.60;;;;;;;;;;5076955;28;20792;-67
2023/12/22 06:35:28;;;;;;;11.07;4.20;;;;;;;;;;5072085;28;20448;-67
2023/12/22 06:37:55;;;;;;;8.60;3.90;;;;;;;;;;5068998;28;20479;-66
2023/12/22 06:40:23;;;;;;;14.27;5.73;;;;;;;;;;5076531;28;20470;-67
2023/12/22 06:42:49;;;;;;;8.90;4.97;;;;;;;;;;5073463;28;21107;-67
2023/12/22 06:45:16;;;;;;;8.93;4.60;;;;;;;;;;5075240;28;20521;-67
2023/12/22 06:47:42;;;;;;;7.70;4.73;;;;;;;;;;5068244;28;20642;-67
2023/12/22 06:50:08;;;;;;;12.20;5.20;;;;;;;;;;5062609;28;20498;-66
2023/12/22 06:52:35;;;;;;;7.50;4.10;;;;;;;;;;5068930;28;20494;-66
2023/12/22 06:55:02;;;;;;;13.03;4.53;;;;;;;;;;5078429;28;20511;-66
2023/12/22 06:57:30;;;;;;;6.00;5.00;;;;;;;;;;5074586;28;20452;-67
2023/12/22 06:59:56;;;;;;;7.57;4.93;;;;;;;;;;5066968;28;20483;-66
2023/12/22 07:02:22;;;;;;;7.80;3.97;;;;;;;;;;5076243;28;20531;-67
2023/12/22 07:05:07;;;;;;;9.20;5.07;;;;;;;;;;5070787;28;21028;-66
2023/12/22 07:07:34;;;;;;;11.40;4.67;;;;;;;;;;5069040;28;20463;-66
2023/12/22 07:10:00;;;;;;;6.30;5.70;;;;;;;;;;5073985;28;20564;-66
2023/12/22 07:12:26;;;;;;;10.07;6.80;;;;;;;;;;5073551;28;20486;-67
2023/12/22 07:14:54;;;;;;;8.97;5.20;;;;;;;;;;5072315;28;20491;-67
2023/12/22 07:17:21;;;;;;;10.07;7.63;;;;;;;;;;5072664;28;20441;-66
2023/12/22 07:19:47;;;;;;;7.13;4.87;;;;;;;;;;5069363;28;20437;-67
2023/12/22 07:22:14;;;;;;;10.37;4.73;;;;;;;;;;5076790;28;20702;-68
2023/12/22 07:24:41;;;;;;;12.77;5.10;;;;;;;;;;5072697;28;20488;-66
2023/12/22 07:27:07;;;;;;;21.47;4.77;;;;;;;;;;5075989;28;20524;-67
2023/12/22 07:29:33;;;;;;;11.03;4.70;;;;;;;;;;5075784;28;20484;-67
2023/12/22 07:32:01;;;;;;;10.93;4.97;;;;;;;;;;5077149;28;20471;-66
2023/12/22 07:34:28;;;;;;;6.87;4.63;;;;;;;;;;5076114;28;20474;-67
2023/12/22 07:36:55;;;;;;;14.10;4.60;;;;;;;;;;5076316;28;20448;-67
2023/12/22 07:39:22;;;;;;;19.93;5.53;;;;;;;;;;5077473;28;20511;-67
2023/12/22 07:41:49;;;;;;;8.53;4.43;;;;;;;;;;5077026;28;20479;-67
2023/12/22 07:44:15;;;;;;;13.23;4.93;;;;;;;;;;5074466;28;20444;-68
2023/12/22 07:46:41;;;;;;;7.80;4.67;;;;;;;;;;5063161;28;20483;-68
2023/12/22 07:49:09;;;;;;;13.43;6.30;;;;;;;;;;5074750;28;20953;-67
2023/12/22 07:51:36;;;;;;;13.93;5.13;;;;;;;;;;5073287;28;20459;-67
2023/12/22 07:54:02;;;;;;;12.63;5.37;;;;;;;;;;5072140;28;20539;-67
2023/12/22 07:56:29;;;;;;;19.83;6.00;;;;;;;;;;5072559;28;20476;-67
2023/12/22 07:58:55;;;;;;;17.27;5.50;;;;;;;;;;5074947;28;20951;-67
2023/12/22 08:01:21;;;;;;;14.07;4.90;;;;;;;;;;5070091;28;20456;-67
2023/12/22 08:03:48;;;;;;;16.07;7.00;;;;;;;;;;5072783;28;20465;-68
2023/12/22 08:06:15;;;;;;;9.47;5.37;;;;;;;;;;5074650;28;20586;-68
2023/12/22 08:08:42;;;;;;;15.03;5.60;;;;;;;;;;5076272;28;20440;-67
2023/12/22 08:11:08;;;;;;;15.57;4.70;;;;;;;;;;5076383;28;21418;-68
2023/12/22 08:13:35;;;;;;;8.70;5.27;;;;;;;;;;5074009;28;20459;-67
2023/12/22 08:16:01;;;;;;;10.97;5.10;;;;;;;;;;5070398;28;21024;-68
2023/12/22 08:18:29;;;;;;;14.43;5.40;;;;;;;;;;5072879;28;20440;-67
2023/12/22 08:20:55;;;;;;;10.93;5.27;;;;;;;;;;5073361;28;20448;-66
2023/12/22 08:23:23;;;;;;;10.03;4.73;;;;;;;;;;5069821;28;20556;-66
2023/12/22 08:25:49;;;;;;;11.47;5.07;;;;;;;;;;5066545;28;20590;-66
2023/12/22 08:28:15;;;;;;;12.70;6.40;;;;;;;;;;5075187;28;20447;-66
2023/12/22 08:30:42;;;;;;;10.27;4.90;;;;;;;;;;5073458;28;20524;-66
2023/12/22 08:33:09;;;;;;;15.63;5.37;;;;;;;;;;5070360;28;20476;-67
2023/12/22 08:35:36;;;;;;;14.33;4.00;;;;;;;;;;5075252;28;20527;-67
2023/12/22 08:38:02;;;;;;;11.47;4.97;;;;;;;;;;5075607;28;20519;-67
2023/12/22 08:40:30;;;;;;;13.37;5.20;;;;;;;;;;5069990;28;20496;-66
2023/12/22 08:42:59;;;;;;;17.20;5.40;;;;;;;;;;5074917;28;20971;-67
2023/12/22 08:45:28;;;;;;;17.20;6.00;;;;;;;;;;5070916;28;20455;-67
2023/12/22 08:47:54;;;;;;;19.20;5.43;;;;;;;;;;5074662;28;21462;-67
2023/12/22 08:50:20;;;;;;;9.07;5.03;;;;;;;;;;5075621;28;20575;-67
2023/12/22 08:52:47;;;;;;;7.80;4.93;;;;;;;;;;5064400;28;20498;-67
2023/12/22 08:55:13;;;;;;;10.30;5.33;;;;;;;;;;5074912;28;20827;-67
2023/12/22 08:57:41;;;;;;;11.17;5.00;;;;;;;;;;5069506;28;20476;-67
2023/12/22 09:00:09;;;;;;;7.87;4.90;;;;;;;;;;5075951;28;20491;-67
2023/12/22 09:02:35;;;;;;;14.53;5.20;;;;;;;;;;5068979;28;20456;-67
2023/12/22 09:05:02;;;;;;;10.57;5.10;;;;;;;;;;5068976;28;20600;-67
2023/12/22 09:07:28;;;;;;;8.97;5.67;;;;;;;;;;5055645;28;20456;-67
2023/12/22 09:09:54;;;;;;;15.03;5.60;;;;;;;;;;5052244;28;20588;-67
2023/12/22 09:12:21;;;;;;;9.33;4.90;;;;;;;;;;5056348;28;20480;-67
2023/12/22 09:14:48;;;;;;;12.60;5.40;;;;;;;;;;5055350;28;20540;-67
2023/12/22 09:17:16;;;;;;;8.87;5.50;;;;;;;;;;5055431;28;20521;-67
2023/12/22 09:19:42;;;;;;;12.30;5.30;;;;;;;;;;5056128;28;20521;-66
2023/12/22 09:22:09;;;;;;;15.73;5.43;;;;;;;;;;5054729;28;20465;-67
2023/12/22 09:24:35;;;;;;;16.13;5.70;;;;;;;;;;5055693;28;20479;-67
2023/12/22 09:27:02;;;;;;;15.93;5.67;;;;;;;;;;5053629;28;20564;-73
2023/12/22 09:29:29;;;;;;;11.77;4.10;;;;;;;;;;5054815;28;20464;-71
2023/12/22 09:31:57;;;;;;;9.70;4.40;;;;;;;;;;5052012;28;20460;-70
2023/12/22 09:34:23;;;;;;;8.33;4.20;;;;;;;;;;5048697;28;20553;-72
2023/12/22 09:36:49;;;;;;;9.17;4.33;;;;;;;;;;5055463;28;20509;-71
2023/12/22 09:39:16;;;;;;;9.37;3.47;;;;;;;;;;5052516;28;20477;-71
2023/12/22 09:41:43;;;;;;;8.13;3.30;;;;;;;;;;5053607;28;20531;-70
2023/12/22 09:44:11;;;;;;;6.73;3.53;;;;;;;;;;5044697;28;20463;-71
2023/12/22 09:46:38;;;;;;;7.00;2.90;;;;;;;;;;5055871;28;20464;-70
2023/12/22 09:49:08;;;;;;;6.53;3.20;;;;;;;;;;5056090;28;20544;-71
2023/12/22 09:51:35;;;;;;;6.13;2.53;;;;;;;;;;5048097;28;20532;-72
2023/12/22 09:54:03;;;;;;;6.17;3.60;;;;;;;;;;5052823;28;20468;-76
2023/12/22 09:56:30;;;;;;;7.53;3.07;;;;;;;;;;5057391;28;20445;-71
2023/12/22 09:58:57;;;;;;;10.23;6.30;;;;;;;;;;5054884;28;20452;-70
2023/12/22 10:01:24;;;;;;;8.17;3.07;;;;;;;;;;5054662;28;20564;-70
2023/12/22 10:03:51;;;;;;;3.73;2.57;;;;;;;;;;5057210;28;20461;-70
2023/12/22 10:06:19;;;;;;;10.87;3.23;;;;;;;;;;5076310;28;20492;-70
2023/12/22 10:08:47;;;;;;;6.37;2.87;;;;;;;;;;5078176;28;21180;-70
2023/12/22 10:11:14;;;;;;;7.97;3.07;;;;;;;;;;5070229;28;20481;-70
2023/12/22 10:13:42;;;;;;;10.17;2.90;;;;;;;;;;5067638;28;20456;-77
2023/12/22 10:16:08;;;;;;;6.63;3.10;;;;;;;;;;5074019;28;20512;-72
2023/12/22 10:18:35;;;;;;;6.53;3.63;;;;;;;;;;5077632;28;20455;-71
2023/12/22 10:21:02;;;;;;;8.97;2.30;;;;;;;;;;5074318;28;20591;-71
2023/12/22 10:23:30;;;;;;;7.60;2.60;;;;;;;;;;5077685;28;20456;-72
2023/12/22 10:25:58;;;;;;;8.53;3.30;;;;;;;;;;5074481;28;20450;-73
2023/12/22 10:28:26;;;;;;;10.97;2.80;;;;;;;;;;5072949;28;20479;-75
2023/12/22 10:30:55;;;;;;;5.27;2.87;;;;;;;;;;5073700;28;20488;-76
2023/12/22 10:33:22;;;;;;;6.10;2.70;;;;;;;;;;5078030;28;20903;-77
2023/12/22 10:35:50;;;;;;;4.83;3.30;;;;;;;;;;5078273;28;20468;-76
2023/12/22 10:38:18;;;;;;;7.53;2.40;;;;;;;;;;5075951;28;20472;-75
2023/12/22 10:40:47;;;;;;;8.10;2.43;;;;;;;;;;5075080;28;20496;-73
2023/12/22 10:43:13;;;;;;;5.20;2.87;;;;;;;;;;5076867;28;20536;-75
2023/12/22 10:45:41;;;;;;;6.87;2.80;;;;;;;;;;5076124;28;20517;-73
2023/12/22 10:48:08;;;;;;;4.07;2.73;;;;;;;;;;5070495;28;20539;-72
2023/12/22 10:50:34;;;;;;;8.67;2.77;;;;;;;;;;5074810;28;20483;-80
2023/12/22 10:53:01;;;;;;;3.97;3.27;;;;;;;;;;5075853;28;20463;-66
2023/12/22 10:55:27;;;;;;;8.43;2.70;;;;;;;;;;5078179;28;20455;-80
2023/12/22 10:57:55;;;;;;;8.57;3.20;;;;;;;;;;5073047;28;20455;-80
2023/12/22 11:00:22;;;;;;;8.20;3.00;;;;;;;;;;5076544;28;20483;-81
2023/12/22 11:02:49;;;;;;;9.97;3.90;;;;;;;;;;5077829;28;20529;-80
2023/12/22 11:05:17;;;;;;;6.97;3.03;;;;;;;;;;5068923;28;20492;-79
2023/12/22 11:07:46;;;;;;;3.63;2.67;;;;;;;;;;5055864;28;20538;-81
2023/12/22 11:10:13;;;;;;;4.17;2.93;;;;;;;;;;5050766;28;20489;-80
2023/12/22 11:12:39;;;;;;;3.33;2.70;;;;;;;;;;5045669;28;20524;-79
2023/12/22 11:15:08;;;;;;;6.07;2.47;;;;;;;;;;5053368;28;20487;-81
2023/12/22 11:17:35;;;;;;;5.13;4.73;;;;;;;;;;5056340;28;20521;-79
2023/12/22 11:20:03;;;;;;;5.90;2.70;;;;;;;;;;5056195;28;20468;-80
2023/12/22 11:22:29;;;;;;;6.90;4.10;;;;;;;;;;5045715;28;20459;-80
2023/12/22 11:24:56;;;;;;;5.50;3.00;;;;;;;;;;5054950;28;20478;-79
2023/12/22 11:27:24;;;;;;;4.70;3.53;;;;;;;;;;5050035;28;20945;-79
2023/12/22 11:29:51;;;;;;;4.53;3.37;;;;;;;;;;5055073;28;20519;-79
2023/12/22 11:32:19;;;;;;;4.57;3.47;;;;;;;;;;5055352;28;20480;-80
2023/12/22 11:34:46;;;;;;;3.40;3.10;;;;;;;;;;5052014;28;20581;-80
2023/12/22 11:37:13;;;;;;;10.43;3.00;;;;;;;;;;5056242;28;20540;-79
2023/12/22 11:39:40;;;;;;;4.10;2.70;;;;;;;;;;5054831;28;20982;-82
2023/12/22 11:42:08;;;;;;;6.43;2.50;;;;;;;;;;5052965;28;20480;-81
2023/12/22 11:44:35;;;;;;;3.20;2.33;;;;;;;;;;5047176;28;20548;-79
2023/12/22 11:47:05;;;;;;;4.40;2.43;;;;;;;;;;5052896;28;20452;-78
2023/12/22 11:49:36;;;;;;;3.63;3.23;;;;;;;;;;5055406;28;20452;-79
2023/12/22 11:52:12;;;;;;;3.10;2.83;;;;;;;;;;5050339;28;20505;-80
2023/12/22 11:54:45;;;;;;;10.00;3.07;;;;;;;;;;5046802;28;20591;-79
2023/12/22 11:57:26;;;;;;;7.63;3.60;;;;;;;;;;5053140;28;20491;-81
2023/12/22 11:59:52;;;;;;;5.60;3.30;;;;;;;;;;5050567;28;20449;-81
2023/12/22 12:02:19;;;;;;;4.00;3.00;;;;;;;;;;5053761;28;20568;-80
2023/12/22 12:04:49;;;;;;;5.33;3.10;;;;;;;;;;5047739;28;20497;-80
2023/12/22 12:07:34;;;;;;;5.60;2.73;;;;;;;;;;5049726;28;20495;-82
2023/12/22 12:10:00;;;;;;;5.17;2.97;;;;;;;;;;5049543;28;20456;-82
2023/12/22 12:12:28;;;;;;;6.40;4.10;;;;;;;;;;5045749;28;20543;-82
2023/12/22 12:14:58;;;;;;;4.43;2.47;;;;;;;;;;5050071;28;20506;-76
2023/12/22 12:17:24;;;;;;;2.70;2.10;;;;;;;;;;5053817;28;20540;-78
2023/12/22 12:19:52;;;;;;;4.33;2.53;;;;;;;;;;5052624;28;20937;-77
2023/12/22 12:22:20;;;;;;;7.13;2.37;;;;;;;;;;5054994;28;20491;-78
2023/12/22 12:24:47;;;;;;;3.10;2.60;;;;;;;;;;5048962;28;20461;-83
2023/12/22 12:27:18;;;;;;;4.00;2.13;;;;;;;;;;5056435;28;20512;-76
2023/12/22 12:29:44;;;;;;;4.77;3.27;;;;;;;;;;5049420;28;20549;-75
2023/12/22 12:32:14;;;;;;;2.67;2.47;;;;;;;;;;5048233;28;20942;-79
2023/12/22 12:34:41;;;;;;;2.97;2.77;;;;;;;;;;5054687;28;20484;-69
2023/12/22 12:37:09;;;;;;;6.03;2.97;;;;;;;;;;5046872;28;20533;-75
2023/12/22 12:39:36;;;;;;;2.77;2.57;;;;;;;;;;5048320;28;20915;-77
2023/12/22 12:42:02;;;;;;;3.53;2.63;;;;;;;;;;5055287;28;20461;-76
2023/12/22 12:44:32;;;;;;;2.90;2.47;;;;;;;;;;5054155;28;20545;-78
2023/12/22 12:46:58;;;;;;;5.40;4.00;;;;;;;;;;5055799;28;20449;-76
2023/12/22 12:49:27;;;;;;;3.30;2.80;;;;;;;;;;5054826;28;20551;-75
2023/12/22 12:51:54;;;;;;;2.40;2.20;;;;;;;;;;5051835;28;20495;-67
2023/12/22 12:54:21;;;;;;;2.50;2.30;;;;;;;;;;5049944;28;20483;-66
2023/12/22 12:56:48;;;;;;;2.60;2.40;;;;;;;;;;5054568;28;20532;-70
2023/12/22 12:59:15;;;;;;;2.97;2.20;;;;;;;;;;5044035;28;20557;-71
2023/12/22 13:01:41;;;;;;;4.00;2.43;;;;;;;;;;5046835;28;21063;-71
2023/12/22 13:04:08;;;;;;;2.63;2.43;;;;;;;;;;5054960;28;20914;-70
2023/12/22 13:06:34;;;;;;;3.23;2.87;;;;;;;;;;5069847;28;20992;-70
2023/12/22 13:09:01;;;;;;;4.50;2.70;;;;;;;;;;5069819;28;20517;-68
2023/12/22 13:11:30;;;;;;;3.53;2.33;;;;;;;;;;5069084;28;20500;-70
2023/12/22 13:13:57;;;;;;;3.00;2.80;;;;;;;;;;5072436;28;21025;-69
2023/12/22 13:16:26;;;;;;;3.33;2.23;;;;;;;;;;5069023;28;20562;-70
2023/12/22 13:18:52;;;;;;;2.70;2.30;;;;;;;;;;5073905;28;20460;-69
2023/12/22 13:21:19;;;;;;;3.03;2.73;;;;;;;;;;5067004;28;21358;-70
2023/12/22 13:23:45;;;;;;;2.20;2.10;;;;;;;;;;5076696;28;20452;-72
2023/12/22 13:26:18;;;;;;;6.23;2.50;;;;;;;;;;5078869;28;20510;-71
2023/12/22 13:28:46;;;;;;;3.67;2.50;;;;;;;;;;5077430;28;22015;-72
2023/12/22 13:31:13;;;;;;;3.30;2.40;;;;;;;;;;5078922;28;20503;-72
2023/12/22 13:33:40;;;;;;;2.63;2.37;;;;;;;;;;5078485;28;20542;-70
2023/12/22 13:36:07;;;;;;;2.07;1.97;;;;;;;;;;5076605;28;20544;-82
2023/12/22 13:38:33;;;;;;;2.60;2.43;;;;;;;;;;5073170;28;20555;-70
2023/12/22 13:41:01;;;;;;;3.20;2.63;;;;;;;;;;5078622;28;20539;-70
2023/12/22 13:43:29;;;;;;;2.73;2.60;;;;;;;;;;5074181;28;21014;-70
2023/12/22 13:45:57;;;;;;;3.03;2.87;;;;;;;;;;5066039;28;20480;-70
2023/12/22 13:48:23;;;;;;;3.00;2.53;;;;;;;;;;5077931;28;20528;-70
2023/12/22 13:50:56;;;;;;;2.90;2.70;;;;;;;;;;5073474;28;20479;-70
2023/12/22 13:53:23;;;;;;;2.90;2.70;;;;;;;;;;5068641;28;21019;-71
2023/12/22 13:55:54;;;;;;;2.90;2.70;;;;;;;;;;5078240;28;20551;-72
2023/12/22 13:58:21;;;;;;;2.20;2.10;;;;;;;;;;5073577;28;20511;-71
2023/12/22 14:00:47;;;;;;;1.90;1.80;;;;;;;;;;5073651;28;20952;-71
2023/12/22 14:03:16;;;;;;;2.10;2.00;;;;;;;;;;5078034;28;20457;-71
2023/12/22 14:05:42;;;;;;;4.80;2.00;;;;;;;;;;5065213;28;20491;-71
2023/12/22 14:08:09;;;;;;;1.73;1.63;;;;;;;;;;5055522;28;20457;-71
2023/12/22 14:10:35;;;;;;;1.90;1.80;;;;;;;;;;5053709;28;20629;-71
2023/12/22 14:13:02;;;;;;;2.43;2.33;;;;;;;;;;5046394;28;20486;-71
2023/12/22 14:15:29;;;;;;;6.03;2.40;;;;;;;;;;5052678;28;20485;-71
2023/12/22 14:17:56;;;;;;;1.30;1.30;;;;;;;;;;5050490;28;20858;-72
2023/12/22 14:20:24;;;;;;;2.70;1.60;;;;;;;;;;5048398;28;20448;-71
2023/12/22 14:22:51;;;;;;;2.07;1.77;;;;;;;;;;5044919;28;20477;-71
2023/12/22 14:25:17;;;;;;;1.67;1.57;;;;;;;;;;5051981;28;21048;-71
2023/12/22 14:27:43;;;;;;;1.67;1.50;;;;;;;;;;5046579;28;20554;-71
2023/12/22 14:30:10;;;;;;;1.80;1.70;;;;;;;;;;5047822;28;21006;-71
2023/12/22 14:32:37;;;;;;;1.97;1.40;;;;;;;;;;5054264;28;20485;-73
2023/12/22 14:35:03;;;;;;;2.03;1.20;;;;;;;;;;5047424;28;20463;-76
2023/12/22 14:37:31;;;;;;;1.20;1.10;;;;;;;;;;5056328;28;21323;-82